createdAt,value
2023-02-21T00:00:46.346Z,100738.53
2023-02-21T00:03:14.939Z,100735.75
2023-02-21T00:05:42.211Z,100735.97
2023-02-21T00:08:09.349Z,100735.34
2023-02-21T00:10:36.218Z,100730.94
2023-02-21T00:13:03.032Z,100738.16
2023-02-21T00:15:29.803Z,100733.91
2023-02-21T00:17:57.008Z,100732.84
2023-02-21T00:20:25.457Z,100730.13
2023-02-21T00:22:52.349Z,100735.34
2023-02-21T00:25:19.210Z,100734.97
2023-02-21T00:27:46.116Z,100735.38
2023-02-21T00:30:14.886Z,100729.09
2023-02-21T00:32:41.918Z,100731.41
2023-02-21T00:35:09.052Z,100722.94
2023-02-21T00:37:37.571Z,100716.63
2023-02-21T00:40:05.192Z,100719.34
2023-02-21T00:42:32.081Z,100720.63
2023-02-21T00:44:58.922Z,100716.00
2023-02-21T00:47:29.024Z,100715.78
2023-02-21T00:49:55.747Z,100717.88
2023-02-21T00:52:22.464Z,100713.19
2023-02-21T00:54:50.896Z,100711.56
2023-02-21T00:57:18.168Z,100716.63
2023-02-21T00:59:44.961Z,100714.50
2023-02-21T01:02:12.550Z,100712.81
2023-02-21T01:04:39.679Z,100705.59
2023-02-21T01:07:06.929Z,100701.38
2023-02-21T01:09:33.827Z,100691.25
2023-02-21T01:12:02.204Z,100695.47
2023-02-21T01:14:29.296Z,100701.38
2023-02-21T01:16:59.427Z,100693.19
2023-02-21T01:19:34.617Z,100691.06
2023-02-21T01:22:01.587Z,100689.41
2023-02-21T01:24:28.418Z,100690.47
2023-02-21T01:26:55.354Z,100689.78
2023-02-21T01:29:23.633Z,100687.88
2023-02-21T01:31:50.691Z,100681.75
2023-02-21T01:34:17.510Z,100685.38
2023-02-21T01:36:44.425Z,100685.13
2023-02-21T01:39:11.746Z,100687.47
2023-02-21T01:41:38.807Z,100678.78
2023-02-21T01:44:27.508Z,100680.69
2023-02-21T01:46:55.625Z,100681.13
2023-02-21T01:49:22.826Z,100676.06
2023-02-21T01:51:50.510Z,100676.28
2023-02-21T01:54:18.789Z,100678.38
2023-02-21T01:56:46.275Z,100680.22
2023-02-21T01:59:14.200Z,100671.59
2023-02-21T02:01:46.562Z,100670.97
2023-02-21T02:04:15.004Z,100665.50
2023-02-21T02:06:41.836Z,100665.47
2023-02-21T02:09:16.363Z,100662.09
2023-02-21T02:12:02.892Z,100663.13
2023-02-21T02:14:50.759Z,100659.28
2023-02-21T02:17:31.508Z,100656.59
2023-02-21T02:20:35.747Z,100652.34
2023-02-21T02:23:41.307Z,100652.53
2023-02-21T02:26:49.236Z,100648.97
2023-02-21T02:29:35.295Z,100647.94
2023-02-21T02:32:20.809Z,100649.63
2023-02-21T02:34:55.732Z,100642.66
2023-02-21T02:37:30.656Z,100637.75
2023-02-21T02:40:03.814Z,100633.25
2023-02-21T02:42:48.765Z,100630.66
2023-02-21T02:45:23.165Z,100629.66
2023-02-21T02:47:57.168Z,100624.56
2023-02-21T02:50:28.514Z,100629.03
2023-02-21T02:53:01.753Z,100626.75
2023-02-21T02:55:39.369Z,100617.25
2023-02-21T02:58:07.744Z,100621.22
2023-02-21T03:00:40.360Z,100616.56
2023-02-21T03:03:24.192Z,100609.63
2023-02-21T03:06:12.981Z,100610.03
2023-02-21T03:08:49.927Z,100618.47
2023-02-21T03:11:19.983Z,100615.88
2023-02-21T03:13:51.815Z,100618.00
2023-02-21T03:16:23.427Z,100616.16
2023-02-21T03:18:57.104Z,100615.38
2023-02-21T03:21:29.297Z,100613.44
2023-02-21T03:24:01.147Z,100615.13
2023-02-21T03:26:31.746Z,100607.75
2023-02-21T03:28:59.362Z,100612.38
2023-02-21T03:31:32.443Z,100606.47
2023-02-21T03:33:59.660Z,100604.56
2023-02-21T03:36:27.995Z,100611.25
2023-02-21T03:38:54.804Z,100603.38
2023-02-21T03:41:21.968Z,100598.25
2023-02-21T03:43:48.752Z,100598.50
2023-02-21T03:46:15.693Z,100595.59
2023-02-21T03:48:42.524Z,100592.59
2023-02-21T03:51:09.156Z,100584.53
2023-02-21T03:53:37.567Z,100589.00
2023-02-21T03:56:04.947Z,100586.28
2023-02-21T03:58:31.799Z,100590.06
2023-02-21T04:00:58.606Z,100588.75
2023-02-21T04:03:25.589Z,100583.34
2023-02-21T04:05:52.391Z,100582.50
2023-02-21T04:08:19.296Z,100585.88
2023-02-21T04:10:52.328Z,100588.50
2023-02-21T04:13:19.507Z,100593.00
2023-02-21T04:15:46.360Z,100587.88
2023-02-21T04:18:13.459Z,100589.75
2023-02-21T04:20:40.656Z,100588.19
2023-02-21T04:23:07.468Z,100583.22
2023-02-21T04:25:34.334Z,100588.25
2023-02-21T04:28:02.596Z,100577.97
2023-02-21T04:30:29.740Z,100575.09
2023-02-21T04:32:56.479Z,100573.66
2023-02-21T04:35:23.837Z,100574.31
2023-02-21T04:37:50.612Z,100573.84
2023-02-21T04:40:17.704Z,100577.22
2023-02-21T04:42:44.797Z,100575.34
2023-02-21T04:45:13.635Z,100572.50
2023-02-21T04:47:40.861Z,100561.34
2023-02-21T04:50:08.198Z,100570.34
2023-02-21T04:52:35.294Z,100566.53
2023-02-21T04:55:02.381Z,100569.19
2023-02-21T04:57:29.334Z,100559.50
2023-02-21T04:59:57.619Z,100553.66
2023-02-21T05:02:26.835Z,100560.19
2023-02-21T05:04:53.812Z,100548.63
2023-02-21T05:07:20.526Z,100555.41
2023-02-21T05:09:47.679Z,100553.59
2023-02-21T05:12:14.386Z,100550.38
2023-02-21T05:14:42.002Z,100554.78
2023-02-21T05:17:08.896Z,100549.47
2023-02-21T05:19:37.635Z,100551.16
2023-02-21T05:22:04.448Z,100550.84
2023-02-21T05:24:31.616Z,100552.94
2023-02-21T05:26:59.076Z,100548.13
2023-02-21T05:29:26.334Z,100545.59
2023-02-21T05:31:53.509Z,100543.06
2023-02-21T05:34:20.396Z,100539.63
2023-02-21T05:36:48.845Z,100537.06
2023-02-21T05:39:15.987Z,100531.63
2023-02-21T05:41:47.486Z,100525.63
2023-02-21T05:44:14.448Z,100524.31
2023-02-21T05:46:41.796Z,100522.69
2023-02-21T05:49:09.260Z,100525.41
2023-02-21T05:51:38.332Z,100517.81
2023-02-21T05:54:08.112Z,100513.81
2023-02-21T05:56:38.744Z,100512.13
2023-02-21T05:59:06.266Z,100513.38
2023-02-21T06:01:33.375Z,100521.31
2023-02-21T06:04:00.603Z,100518.31
2023-02-21T06:06:27.718Z,100520.19
2023-02-21T06:08:54.848Z,100530.81
2023-02-21T06:11:28.081Z,100523.47
2023-02-21T06:13:57.342Z,100520.69
2023-02-21T06:16:24.909Z,100520.69
2023-02-21T06:18:52.348Z,100514.63
2023-02-21T06:21:19.489Z,100507.66
2023-02-21T06:23:46.272Z,100509.03
2023-02-21T06:26:14.481Z,100504.56
2023-02-21T06:28:42.794Z,100504.50
2023-02-21T06:31:10.103Z,100496.13
2023-02-21T06:33:37.284Z,100498.09
2023-02-21T06:36:05.725Z,100498.34
2023-02-21T06:38:32.686Z,100506.53
2023-02-21T06:40:59.657Z,100505.16
2023-02-21T06:43:26.664Z,100500.38
2023-02-21T06:45:55.054Z,100495.50
2023-02-21T06:48:22.022Z,100498.88
2023-02-21T06:50:48.812Z,100495.13
2023-02-21T06:53:15.936Z,100491.00
2023-02-21T06:55:42.721Z,100481.34
2023-02-21T06:58:09.956Z,100487.66
2023-02-21T07:00:36.944Z,100486.81
2023-02-21T07:03:05.846Z,100488.28
2023-02-21T07:05:32.661Z,100491.28
2023-02-21T07:07:59.511Z,100490.25
2023-02-21T07:10:26.494Z,100486.97
2023-02-21T07:12:53.247Z,100481.59
2023-02-21T07:15:20.106Z,100481.94
2023-02-21T07:17:46.992Z,100478.94
2023-02-21T07:20:15.548Z,100472.16
2023-02-21T07:22:42.261Z,100471.13
2023-02-21T07:25:09.070Z,100472.94
2023-02-21T07:27:36.197Z,100472.81
2023-02-21T07:30:03.302Z,100469.72
2023-02-21T07:32:30.019Z,100476.66
2023-02-21T07:34:56.922Z,100473.13
2023-02-21T07:37:25.577Z,100480.28
2023-02-21T07:39:52.606Z,100483.28
2023-02-21T07:42:19.472Z,100479.31
2023-02-21T07:44:46.216Z,100478.03
2023-02-21T07:47:12.985Z,100486.59
2023-02-21T07:49:40.792Z,100483.84
2023-02-21T07:52:07.754Z,100486.25
2023-02-21T07:54:36.180Z,100481.38
2023-02-21T07:57:03.203Z,100478.31
2023-02-21T07:59:30.039Z,100485.81
2023-02-21T08:01:57.229Z,100486.56
2023-02-21T08:04:24.122Z,100479.13
2023-02-21T08:06:51.219Z,100478.97
2023-02-21T08:09:18.076Z,100486.16
2023-02-21T08:11:46.452Z,100488.28
2023-02-21T08:14:13.317Z,100490.16
2023-02-21T08:16:40.617Z,100489.66
2023-02-21T08:19:07.423Z,100486.94
2023-02-21T08:21:34.198Z,100484.44
2023-02-21T08:24:01.177Z,100480.66
2023-02-21T08:26:27.943Z,100486.97
2023-02-21T08:28:56.336Z,100483.16
2023-02-21T08:31:23.180Z,100487.53
2023-02-21T08:33:50.120Z,100483.13
2023-02-21T08:36:16.883Z,100476.59
2023-02-21T08:38:44.131Z,100484.34
2023-02-21T08:41:12.903Z,100482.22
2023-02-21T08:43:40.225Z,100481.97
2023-02-21T08:46:08.751Z,100486.69
2023-02-21T08:48:35.795Z,100491.50
2023-02-21T08:51:04.225Z,100491.34
2023-02-21T08:53:31.385Z,100492.00
2023-02-21T08:55:58.197Z,100491.16
2023-02-21T08:58:25.271Z,100488.47
2023-02-21T09:00:53.539Z,100491.81
2023-02-21T09:03:21.615Z,100489.94
2023-02-21T09:05:48.556Z,100507.72
2023-02-21T09:08:15.716Z,100495.53
2023-02-21T09:10:42.826Z,100498.06
2023-02-21T09:13:09.637Z,100495.59
2023-02-21T09:15:36.577Z,100498.13
2023-02-21T09:18:03.376Z,100504.69
2023-02-21T09:20:31.562Z,100506.13
2023-02-21T09:22:58.760Z,100493.50
2023-02-21T09:25:27.389Z,100501.28
2023-02-21T09:27:54.853Z,100500.00
2023-02-21T09:30:24.804Z,100501.28
2023-02-21T09:32:52.256Z,100497.50
2023-02-21T09:35:19.636Z,100496.47
2023-02-21T09:37:48.138Z,100493.09
2023-02-21T09:40:27.788Z,100494.34
2023-02-21T09:42:58.385Z,100484.25
2023-02-21T09:45:27.212Z,100493.91
2023-02-21T09:47:56.998Z,100495.59
2023-02-21T09:50:27.257Z,100496.00
2023-02-21T09:52:57.042Z,100491.59
2023-02-21T09:55:30.805Z,100501.91
2023-02-21T09:57:58.190Z,100491.59
2023-02-21T10:00:29.765Z,100497.91
2023-02-21T10:03:04.551Z,100499.59
2023-02-21T10:05:43.945Z,100492.81
2023-02-21T10:08:23.212Z,100493.06
2023-02-21T10:10:54.107Z,100493.72
2023-02-21T10:13:35.612Z,100500.22
2023-02-21T10:16:08.778Z,100493.06
2023-02-21T10:18:42.734Z,100502.16
2023-02-21T10:21:16.411Z,100487.81
2023-02-21T10:23:47.717Z,100492.22
2023-02-21T10:26:21.600Z,100491.56
2023-02-21T10:28:49.798Z,100494.31
2023-02-21T10:31:20.641Z,100494.53
2023-02-21T10:33:47.863Z,100494.34
2023-02-21T10:36:18.554Z,100489.88
2023-02-21T10:38:55.744Z,100495.22
2023-02-21T10:41:23.921Z,100486.75
2023-02-21T10:43:55.197Z,100487.19
2023-02-21T10:46:28.030Z,100489.50
2023-02-21T10:49:10.195Z,100492.84
2023-02-21T10:51:37.312Z,100489.69
2023-02-21T10:54:23.500Z,100492.13
2023-02-21T10:56:52.938Z,100485.59
2023-02-21T10:59:23.096Z,100487.28
2023-02-21T11:01:51.842Z,100491.19
2023-02-21T11:04:30.898Z,100491.00
2023-02-21T11:07:05.857Z,100481.28
2023-02-21T11:09:39.376Z,100487.16
2023-02-21T11:12:18.200Z,100480.03
2023-02-21T11:15:03.554Z,100482.03
2023-02-21T11:17:31.747Z,100476.50
2023-02-21T11:20:05.671Z,100477.72
2023-02-21T11:22:38.536Z,100469.28
2023-02-21T11:25:16.322Z,100465.59
2023-02-21T11:27:46.129Z,100465.59
2023-02-21T11:30:17.468Z,100465.75
2023-02-21T11:32:50.513Z,100464.19
2023-02-21T11:35:27.058Z,100461.44
2023-02-21T11:37:56.459Z,100458.81
2023-02-21T11:40:41.118Z,100451.56
2023-02-21T11:43:21.889Z,100449.34
2023-02-21T11:46:04.844Z,100445.38
2023-02-21T11:48:38.166Z,100437.19
2023-02-21T11:51:14.257Z,100444.81
2023-02-21T11:53:43.559Z,100440.47
2023-02-21T11:56:28.583Z,100431.25
2023-02-21T11:59:03.709Z,100422.19
2023-02-21T12:01:39.843Z,100427.63
2023-02-21T12:05:04.918Z,100414.06
2023-02-21T12:07:40.370Z,100412.00
2023-02-21T12:10:27.598Z,100408.97
2023-02-21T12:13:03.625Z,100406.16
2023-02-21T12:15:40.819Z,100401.53
2023-02-21T12:18:26.019Z,100398.69
2023-02-21T12:21:13.881Z,100393.63
2023-02-21T12:23:51.849Z,100386.66
2023-02-21T12:26:34.404Z,100380.47
2023-02-21T12:29:16.694Z,100369.59
2023-02-21T12:31:58.755Z,100363.75
2023-02-21T12:34:39.297Z,100364.22
2023-02-21T12:37:28.275Z,100363.28
2023-02-21T12:40:19.290Z,100352.53
2023-02-21T12:43:22.492Z,100349.91
2023-02-21T12:46:10.913Z,100347.84
2023-02-21T12:48:43.820Z,100338.75
2023-02-21T12:51:14.888Z,100344.00
2023-02-21T12:53:46.339Z,100348.47
2023-02-21T12:56:19.782Z,100337.75
2023-02-21T12:58:51.918Z,100336.97
2023-02-21T13:01:25.461Z,100332.69
2023-02-21T13:04:03.791Z,100328.97
2023-02-21T13:06:34.227Z,100326.47
2023-02-21T13:09:11.881Z,100325.72
2023-02-21T13:11:46.687Z,100320.22
2023-02-21T13:14:18.527Z,100319.97
2023-02-21T13:16:47.156Z,100304.06
2023-02-21T13:19:15.456Z,100305.50
2023-02-21T13:21:59.425Z,100303.81
2023-02-21T13:24:39.095Z,100304.34
2023-02-21T13:27:36.741Z,100304.28
2023-02-21T13:30:13.547Z,100295.50
2023-02-21T13:32:51.699Z,100291.88
2023-02-21T13:35:24.984Z,100299.53
2023-02-21T13:37:53.631Z,100295.94
2023-02-21T13:40:24.401Z,100287.97
2023-02-21T13:43:02.602Z,100272.53
2023-02-21T13:45:30.126Z,100269.50
2023-02-21T13:48:31.725Z,100272.59
2023-02-21T13:51:00.545Z,100262.41
2023-02-21T13:53:30.222Z,100260.06
2023-02-21T13:56:18.565Z,100258.22
2023-02-21T13:58:46.887Z,100264.56
2023-02-21T14:01:36.687Z,100255.38
2023-02-21T14:04:49.190Z,100246.09
2023-02-21T14:07:16.020Z,100222.38
2023-02-21T14:09:46.215Z,100226.00
2023-02-21T14:12:13.386Z,100223.47
2023-02-21T14:14:41.159Z,100220.25
2023-02-21T14:17:10.469Z,100213.56
2023-02-21T14:19:46.632Z,100213.31
2023-02-21T14:22:16.597Z,100218.19
2023-02-21T14:24:46.643Z,100211.72
2023-02-21T14:27:33.149Z,100213.13
2023-02-21T14:30:25.990Z,100196.00
2023-02-21T14:32:55.075Z,100204.50
2023-02-21T14:35:29.597Z,100193.84
2023-02-21T14:38:01.657Z,100185.69
2023-02-21T14:40:36.178Z,100190.59
2023-02-21T14:43:37.678Z,100188.31
2023-02-21T14:46:39.417Z,100184.31
2023-02-21T14:49:36.229Z,100177.03
2023-02-21T14:52:36.711Z,100177.13
2023-02-21T14:55:34.477Z,100178.63
2023-02-21T14:58:38.218Z,100176.44
2023-02-21T15:01:16.042Z,100167.69
2023-02-21T15:03:49.013Z,100165.47
2023-02-21T15:06:19.371Z,100170.28
2023-02-21T15:08:49.360Z,100164.69
2023-02-21T15:11:25.920Z,100169.25
2023-02-21T15:14:12.301Z,100161.56
2023-02-21T15:16:44.014Z,100159.41
2023-02-21T15:19:21.805Z,100168.53
2023-02-21T15:21:48.920Z,100157.97
2023-02-21T15:24:17.190Z,100154.81
2023-02-21T15:26:44.085Z,100153.00
2023-02-21T15:29:13.731Z,100152.00
2023-02-21T15:31:42.861Z,100149.53
2023-02-21T15:34:16.857Z,100152.31
2023-02-21T15:36:44.530Z,100139.69
2023-02-21T15:39:19.287Z,100145.78
2023-02-21T15:41:50.434Z,100136.22
2023-02-21T15:44:22.122Z,100145.91
2023-02-21T15:46:53.534Z,100139.28
2023-02-21T15:49:25.240Z,100133.03
2023-02-21T15:51:52.315Z,100132.91
2023-02-21T15:54:26.085Z,100135.72
2023-02-21T15:57:09.256Z,100133.34
2023-02-21T15:59:37.112Z,100121.81
2023-02-21T16:02:13.294Z,100118.34
2023-02-21T16:04:42.088Z,100117.06
2023-02-21T16:07:18.395Z,100106.53
2023-02-21T16:09:47.960Z,100108.69
2023-02-21T16:12:32.066Z,100102.94
2023-02-21T16:15:03.010Z,100110.25
2023-02-21T16:17:33.085Z,100110.25
2023-02-21T16:20:09.374Z,100098.75
2023-02-21T16:25:25.365Z,100104.38
2023-02-21T16:27:56.101Z,100098.66
2023-02-21T16:30:25.478Z,100090.38
2023-02-21T16:32:54.928Z,100093.13
2023-02-21T16:35:24.142Z,100077.94
2023-02-21T16:37:53.481Z,100080.69
2023-02-21T16:40:23.213Z,100070.50
2023-02-21T16:42:50.135Z,100069.31
2023-02-21T16:45:18.955Z,100067.16
2023-02-21T16:47:47.380Z,100078.06
2023-02-21T16:50:19.573Z,100073.97
2023-02-21T16:52:46.576Z,100081.84
2023-02-21T16:55:16.221Z,100074.66
2023-02-21T16:57:44.070Z,100066.91
2023-02-21T17:00:11.912Z,100068.75
2023-02-21T17:02:40.592Z,100072.44
2023-02-21T17:05:08.229Z,100071.84
2023-02-21T17:07:35.292Z,100073.53
2023-02-21T17:10:02.160Z,100065.28
2023-02-21T17:12:29.149Z,100067.56
2023-02-21T17:14:55.935Z,100066.13
2023-02-21T17:17:23.050Z,100055.00
2023-02-21T17:19:51.858Z,100063.34
2023-02-21T17:22:18.654Z,100063.22
2023-02-21T17:24:45.508Z,100061.50
2023-02-21T17:27:12.869Z,100068.25
2023-02-21T17:29:39.668Z,100052.03
2023-02-21T17:32:06.676Z,100055.63
2023-02-21T17:34:33.871Z,100057.63
2023-02-21T17:37:02.759Z,100051.22
2023-02-21T17:39:30.225Z,100053.50
2023-02-21T17:41:57.315Z,100064.03
2023-02-21T17:44:26.479Z,100057.31
2023-02-21T17:46:55.973Z,100050.59
2023-02-21T17:49:24.736Z,100059.50
2023-02-21T17:51:52.504Z,100062.00
2023-02-21T17:54:24.879Z,100065.13
2023-02-21T17:56:52.466Z,100064.00
2023-02-21T17:59:19.819Z,100060.03
2023-02-21T18:01:47.016Z,100061.78
2023-02-21T18:04:14.510Z,100052.69
2023-02-21T18:06:42.032Z,100049.97
2023-02-21T18:09:09.449Z,100048.06
2023-02-21T18:11:38.040Z,100052.84
2023-02-21T18:14:05.363Z,100048.69
2023-02-21T18:16:32.418Z,100057.06
2023-02-21T18:18:59.363Z,100054.56
2023-02-21T18:21:26.502Z,100049.41
2023-02-21T18:23:53.759Z,100055.06
2023-02-21T18:26:20.897Z,100050.25
2023-02-21T18:28:49.749Z,100048.59
2023-02-21T18:31:17.857Z,100040.91
2023-02-21T18:33:45.011Z,100041.44
2023-02-21T18:36:12.618Z,100037.63
2023-02-21T18:38:40.197Z,100036.41
2023-02-21T18:41:10.826Z,100037.63
2023-02-21T18:43:38.652Z,100042.03
2023-02-21T18:46:10.193Z,100036.53
2023-02-21T18:48:37.288Z,100037.38
2023-02-21T18:51:04.623Z,100039.47
2023-02-21T18:53:31.668Z,100033.19
2023-02-21T18:56:00.380Z,100038.72
2023-02-21T18:58:27.266Z,100035.38
2023-02-21T19:00:54.263Z,100035.59
2023-02-21T19:03:22.600Z,100032.88
2023-02-21T19:05:49.722Z,100033.06
2023-02-21T19:08:18.105Z,100026.97
2023-02-21T19:10:45.933Z,100025.72
2023-02-21T19:13:13.057Z,100030.81
2023-02-21T19:15:40.195Z,100029.13
2023-02-21T19:18:07.089Z,100023.03
2023-02-21T19:20:35.353Z,100019.06
2023-02-21T19:23:02.533Z,100022.22
2023-02-21T19:25:29.325Z,100020.53
2023-02-21T19:27:56.768Z,100019.69
2023-02-21T19:30:23.638Z,100022.63
2023-02-21T19:32:50.537Z,100016.72
2023-02-21T19:35:17.307Z,100022.75
2023-02-21T19:37:45.758Z,100013.09
2023-02-21T19:40:12.617Z,100019.84
2023-02-21T19:42:39.398Z,100019.16
2023-02-21T19:45:06.995Z,100016.00
2023-02-21T19:47:33.863Z,100015.16
2023-02-21T19:50:00.702Z,100008.34
2023-02-21T19:52:27.687Z,100007.09
2023-02-21T19:54:56.026Z,100003.91
2023-02-21T19:57:22.910Z,100004.34
2023-02-21T19:59:49.942Z,100005.75
2023-02-21T20:02:17.062Z,99999.91
2023-02-21T20:04:43.984Z,99991.44
2023-02-21T20:07:11.943Z,99995.69
2023-02-21T20:09:39.315Z,99985.56
2023-02-21T20:12:08.494Z,99989.34
2023-02-21T20:14:35.382Z,99991.06
2023-02-21T20:17:02.604Z,99991.84
2023-02-21T20:19:29.667Z,99987.63
2023-02-21T20:21:56.863Z,99984.53
2023-02-21T20:24:24.193Z,99988.00
2023-02-21T20:26:52.712Z,99986.31
2023-02-21T20:29:22.344Z,99985.94
2023-02-21T20:31:49.731Z,99983.84
2023-02-21T20:34:16.856Z,99973.56
2023-02-21T20:36:44.997Z,99976.25
2023-02-21T20:39:18.797Z,99974.97
2023-02-21T20:41:46.111Z,99978.38
2023-02-21T20:44:13.543Z,99976.13
2023-02-21T20:46:41.809Z,99970.44
2023-02-21T20:49:09.002Z,99970.44
2023-02-21T20:51:37.585Z,99974.44
2023-02-21T20:54:04.905Z,99978.88
2023-02-21T20:56:33.595Z,99970.94
2023-02-21T20:59:00.910Z,99975.50
2023-02-21T21:01:29.037Z,99980.16
2023-02-21T21:03:57.992Z,99972.38
2023-02-21T21:06:25.289Z,99970.47
2023-02-21T21:08:52.189Z,99968.91
2023-02-21T21:11:19.470Z,99963.63
2023-02-21T21:13:46.617Z,99967.09
2023-02-21T21:16:14.659Z,99967.72
2023-02-21T21:18:41.565Z,99955.91
2023-02-21T21:21:10.620Z,99956.44
2023-02-21T21:23:37.687Z,99950.34
2023-02-21T21:26:06.541Z,99945.06
2023-02-21T21:28:33.574Z,99945.09
2023-02-21T21:31:00.401Z,99937.50
2023-02-21T21:33:28.095Z,99944.00
2023-02-21T21:35:55.064Z,99940.81
2023-02-21T21:38:23.848Z,99932.25
2023-02-21T21:40:50.588Z,99923.34
2023-02-21T21:43:17.649Z,99933.94
2023-02-21T21:45:44.702Z,99926.97
2023-02-21T21:48:12.004Z,99924.06
2023-02-21T21:50:39.105Z,99927.00
2023-02-21T21:53:06.049Z,99921.09
2023-02-21T21:55:34.326Z,99916.31
2023-02-21T21:58:01.477Z,99915.34
2023-02-21T22:00:30.336Z,99908.09
2023-02-21T22:02:59.510Z,99908.53
2023-02-21T22:05:28.230Z,99899.34
2023-02-21T22:07:55.283Z,99895.16
2023-02-21T22:10:26.250Z,99895.16
2023-02-21T22:12:56.250Z,99900.31
2023-02-21T22:15:25.502Z,99890.44
2023-02-21T22:17:52.763Z,99881.81
2023-02-21T22:20:22.237Z,99875.81
2023-02-21T22:22:50.963Z,99869.09
2023-02-21T22:25:19.327Z,99869.09
2023-02-21T22:27:46.871Z,99871.59
2023-02-21T22:30:17.790Z,99868.97
2023-02-21T22:32:46.400Z,99877.81
2023-02-21T22:35:15.305Z,99876.34
2023-02-21T22:37:45.126Z,99865.81
2023-02-21T22:40:12.772Z,99870.63
2023-02-21T22:42:39.848Z,99867.72
2023-02-21T22:45:07.447Z,99873.63
2023-02-21T22:47:36.361Z,99862.69
2023-02-21T22:50:04.097Z,99871.28
2023-02-21T22:52:31.392Z,99861.00
2023-02-21T22:54:58.479Z,99863.72
2023-02-21T22:57:25.583Z,99874.03
2023-02-21T22:59:52.639Z,99873.59
2023-02-21T23:02:19.549Z,99860.50
2023-02-21T23:04:48.063Z,99873.72
2023-02-21T23:07:15.034Z,99866.84
2023-02-21T23:09:41.779Z,99859.69
2023-02-21T23:12:10.629Z,99871.41
2023-02-21T23:14:37.454Z,99872.00
2023-02-21T23:17:04.507Z,99866.34
2023-02-21T23:19:31.301Z,99867.72
2023-02-21T23:21:59.507Z,99863.94
2023-02-21T23:24:26.448Z,99867.25
2023-02-21T23:26:53.608Z,99866.44
2023-02-21T23:29:23.014Z,99855.53
2023-02-21T23:31:50.777Z,99854.44
2023-02-21T23:34:18.029Z,99856.03
2023-02-21T23:36:44.849Z,99855.59
2023-02-21T23:39:13.860Z,99847.84
2023-02-21T23:41:41.789Z,99849.34
2023-02-21T23:44:10.445Z,99848.50
2023-02-21T23:46:38.263Z,99845.44
2023-02-21T23:49:05.338Z,99848.81
2023-02-21T23:51:32.153Z,99845.75
2023-02-21T23:53:59.042Z,99842.63
2023-02-21T23:56:27.400Z,99846.41
2023-02-21T23:58:54.303Z,99852.50
